createdAt,value
2023-02-26T00:00:13.169Z,93.88
2023-02-26T00:02:48.913Z,94.75
2023-02-26T00:05:22.026Z,94.37
2023-02-26T00:07:56.416Z,94.59
2023-02-26T00:10:29.542Z,94.89
2023-02-26T00:13:03.232Z,95.15
2023-02-26T00:15:36.957Z,94.77
2023-02-26T00:18:16.200Z,94.20
2023-02-26T00:20:49.991Z,94.94
2023-02-26T00:23:25.132Z,96.31
2023-02-26T00:25:59.627Z,93.65
2023-02-26T00:28:33.300Z,95.82
2023-02-26T00:31:07.357Z,95.71
2023-02-26T00:33:41.787Z,97.05
2023-02-26T00:36:24.250Z,96.78
2023-02-26T00:39:17.229Z,96.79
2023-02-26T00:41:50.988Z,95.96
2023-02-26T00:44:24.795Z,96.40
2023-02-26T00:47:03.163Z,97.46
2023-02-26T00:49:53.530Z,97.82
2023-02-26T00:52:36.628Z,97.11
2023-02-26T00:55:11.210Z,97.61
2023-02-26T00:57:44.174Z,98.39
2023-02-26T01:00:18.916Z,98.13
2023-02-26T01:02:52.618Z,98.49
2023-02-26T01:05:26.763Z,99.28
2023-02-26T01:08:06.176Z,99.28
2023-02-26T01:10:42.264Z,98.90
2023-02-26T01:13:15.973Z,99.49
2023-02-26T01:15:54.196Z,100.00
2023-02-26T01:18:34.609Z,99.58
2023-02-26T01:21:15.832Z,100.00
2023-02-26T01:23:52.582Z,99.61
2023-02-26T01:26:30.170Z,98.66
2023-02-26T01:29:03.711Z,97.67
2023-02-26T01:31:44.368Z,98.15
2023-02-26T01:34:24.240Z,97.86
2023-02-26T01:37:04.234Z,98.22
2023-02-26T01:39:45.067Z,98.31
2023-02-26T01:42:23.048Z,98.71
2023-02-26T01:45:01.839Z,98.84
2023-02-26T01:47:42.207Z,97.92
2023-02-26T01:50:19.278Z,98.36
2023-02-26T01:53:24.572Z,99.10
2023-02-26T01:56:01.717Z,100.00
2023-02-26T01:58:37.881Z,99.64
2023-02-26T02:01:11.127Z,99.38
2023-02-26T02:03:46.206Z,99.97
2023-02-26T02:06:22.927Z,100.00
2023-02-26T02:08:56.748Z,100.00
2023-02-26T02:11:29.867Z,100.00
2023-02-26T02:14:13.526Z,100.00
2023-02-26T02:16:56.040Z,98.78
2023-02-26T02:20:14.076Z,100.00
2023-02-26T02:23:09.467Z,98.75
2023-02-26T02:26:27.664Z,99.44
2023-02-26T02:29:52.824Z,99.51
2023-02-26T02:32:32.405Z,98.30
2023-02-26T02:35:14.071Z,98.85
2023-02-26T02:37:53.879Z,99.74
2023-02-26T02:40:31.124Z,100.00
2023-02-26T02:43:08.410Z,100.00
2023-02-26T02:45:46.798Z,100.00
2023-02-26T02:48:26.121Z,100.00
2023-02-26T02:51:02.925Z,100.00
2023-02-26T02:53:39.125Z,100.00
2023-02-26T02:56:18.452Z,100.00
2023-02-26T02:58:56.301Z,100.00
2023-02-26T03:01:30.284Z,100.00
2023-02-26T03:04:09.247Z,100.00
2023-02-26T03:06:43.466Z,100.00
2023-02-26T03:09:17.101Z,100.00
2023-02-26T03:11:50.105Z,100.00
2023-02-26T03:14:23.367Z,100.00
2023-02-26T03:17:21.355Z,100.00
2023-02-26T03:20:10.631Z,100.00
2023-02-26T03:22:54.577Z,100.00
2023-02-26T03:25:32.393Z,100.00
2023-02-26T03:28:15.775Z,100.00
2023-02-26T03:30:56.924Z,100.00
2023-02-26T03:33:38.466Z,99.59
2023-02-26T03:36:20.434Z,100.00
2023-02-26T03:38:58.396Z,100.00
2023-02-26T03:41:37.623Z,100.00
2023-02-26T03:44:15.496Z,100.00
2023-02-26T03:46:55.011Z,100.00
2023-02-26T03:49:33.002Z,100.00
2023-02-26T03:52:08.085Z,100.00
2023-02-26T03:54:47.980Z,100.00
2023-02-26T03:57:20.963Z,100.00
2023-02-26T03:59:54.515Z,99.40
2023-02-26T04:02:33.084Z,98.83
2023-02-26T04:05:12.702Z,100.00
2023-02-26T04:07:49.524Z,99.71
2023-02-26T04:10:33.107Z,100.00
2023-02-26T04:13:06.111Z,100.00
2023-02-26T04:15:39.629Z,100.00
2023-02-26T04:18:12.611Z,100.00
2023-02-26T04:20:45.603Z,100.00
2023-02-26T04:23:20.131Z,100.00
2023-02-26T04:25:53.399Z,100.00
2023-02-26T04:28:26.496Z,100.00
2023-02-26T04:30:59.488Z,100.00
2023-02-26T04:33:33.261Z,100.00
2023-02-26T04:36:07.035Z,100.00
2023-02-26T04:38:41.407Z,98.64
2023-02-26T04:41:14.472Z,99.38
2023-02-26T04:43:47.477Z,99.58
2023-02-26T04:46:20.631Z,99.82
2023-02-26T04:48:53.836Z,99.90
2023-02-26T04:51:27.096Z,99.51
2023-02-26T04:54:01.479Z,100.00
2023-02-26T04:56:34.510Z,99.63
2023-02-26T04:59:07.761Z,100.00
2023-02-26T05:01:40.861Z,100.00
2023-02-26T05:04:14.049Z,99.26
2023-02-26T05:06:47.056Z,100.00
2023-02-26T05:09:21.874Z,99.51
2023-02-26T05:11:54.939Z,98.32
2023-02-26T05:14:27.926Z,99.17
2023-02-26T05:17:00.920Z,99.21
2023-02-26T05:19:34.292Z,99.06
2023-02-26T05:22:07.274Z,97.19
2023-02-26T05:24:42.205Z,97.47
2023-02-26T05:27:15.912Z,98.24
2023-02-26T05:29:48.981Z,99.31
2023-02-26T05:32:22.045Z,99.59
2023-02-26T05:34:55.024Z,99.96
2023-02-26T05:37:28.059Z,99.75
2023-02-26T05:40:02.362Z,100.00
2023-02-26T05:42:35.369Z,99.66
2023-02-26T05:45:10.187Z,100.00
2023-02-26T05:47:43.281Z,99.77
2023-02-26T05:50:16.769Z,100.00
2023-02-26T05:52:49.887Z,99.66
2023-02-26T05:55:24.783Z,100.00
2023-02-26T05:57:57.783Z,97.91
2023-02-26T06:00:30.950Z,98.15
2023-02-26T06:03:04.189Z,98.26
2023-02-26T06:05:37.359Z,98.19
2023-02-26T06:08:12.119Z,97.52
2023-02-26T06:10:46.474Z,98.26
2023-02-26T06:13:20.075Z,98.33
2023-02-26T06:15:53.712Z,99.76
2023-02-26T06:18:27.333Z,99.84
2023-02-26T06:21:00.416Z,100.00
2023-02-26T06:23:33.467Z,100.00
2023-02-26T06:26:08.038Z,100.00
2023-02-26T06:28:41.699Z,100.00
2023-02-26T06:31:14.742Z,100.00
2023-02-26T06:33:47.917Z,99.59
2023-02-26T06:36:20.977Z,99.66
2023-02-26T06:38:54.047Z,99.11
2023-02-26T06:41:28.451Z,98.65
2023-02-26T06:44:01.466Z,98.07
2023-02-26T06:46:34.598Z,98.99
2023-02-26T06:49:07.774Z,97.74
2023-02-26T06:51:40.780Z,97.33
2023-02-26T06:54:14.112Z,97.68
2023-02-26T06:56:48.426Z,97.59
2023-02-26T06:59:22.058Z,96.62
2023-02-26T07:01:55.043Z,95.88
2023-02-26T07:04:28.025Z,98.54
2023-02-26T07:07:01.076Z,96.69
2023-02-26T07:09:34.056Z,98.65
2023-02-26T07:12:09.131Z,98.29
2023-02-26T07:14:43.046Z,97.46
2023-02-26T07:17:20.438Z,98.63
2023-02-26T07:19:54.236Z,98.22
2023-02-26T07:22:27.288Z,98.14
2023-02-26T07:25:01.058Z,97.72
2023-02-26T07:27:35.466Z,98.42
2023-02-26T07:30:10.769Z,99.20
2023-02-26T07:32:43.900Z,98.04
2023-02-26T07:35:17.154Z,97.91
2023-02-26T07:37:50.155Z,99.13
2023-02-26T07:40:23.176Z,98.58
2023-02-26T07:42:57.524Z,97.96
2023-02-26T07:45:30.506Z,99.11
2023-02-26T07:48:03.473Z,98.32
2023-02-26T07:50:36.479Z,98.92
2023-02-26T07:53:09.844Z,98.03
2023-02-26T07:55:42.982Z,97.77
2023-02-26T07:58:17.365Z,96.12
2023-02-26T08:00:52.621Z,95.71
2023-02-26T08:03:25.763Z,95.62
2023-02-26T08:06:00.276Z,97.37
2023-02-26T08:08:33.346Z,97.45
2023-02-26T08:11:06.405Z,96.54
2023-02-26T08:13:40.793Z,96.75
2023-02-26T08:16:13.883Z,96.45
2023-02-26T08:18:46.947Z,94.76
2023-02-26T08:21:19.933Z,95.88
2023-02-26T08:23:54.132Z,94.80
2023-02-26T08:26:27.816Z,94.42
2023-02-26T08:29:02.406Z,90.60
2023-02-26T08:31:36.065Z,87.64
2023-02-26T08:34:09.100Z,88.92
2023-02-26T08:36:42.204Z,89.66
2023-02-26T08:39:15.290Z,89.27
2023-02-26T08:41:48.267Z,89.61
2023-02-26T08:44:22.595Z,90.33
2023-02-26T08:46:56.388Z,90.25
2023-02-26T08:49:29.417Z,89.72
2023-02-26T08:52:02.441Z,89.36
2023-02-26T08:54:35.464Z,89.73
2023-02-26T08:57:08.418Z,87.49
2023-02-26T08:59:42.812Z,87.70
2023-02-26T09:02:16.310Z,86.64
2023-02-26T09:04:49.352Z,86.46
2023-02-26T09:07:22.376Z,87.41
2023-02-26T09:09:55.428Z,87.58
2023-02-26T09:12:28.496Z,86.39
2023-02-26T09:15:03.543Z,85.31
2023-02-26T09:17:37.449Z,84.93
2023-02-26T09:20:13.576Z,85.44
2023-02-26T09:22:46.651Z,85.27
2023-02-26T09:25:19.956Z,85.30
2023-02-26T09:27:52.994Z,84.41
2023-02-26T09:30:27.472Z,86.66
2023-02-26T09:33:00.699Z,85.10
2023-02-26T09:35:33.848Z,84.74
2023-02-26T09:38:06.867Z,85.76
2023-02-26T09:40:49.995Z,86.88
2023-02-26T09:43:55.272Z,85.06
2023-02-26T09:46:40.394Z,85.56
2023-02-26T09:49:23.524Z,85.47
2023-02-26T09:52:04.908Z,85.97
2023-02-26T09:54:48.484Z,85.27
2023-02-26T09:57:32.198Z,85.92
2023-02-26T10:00:22.047Z,86.37
2023-02-26T10:03:16.264Z,84.92
2023-02-26T10:06:14.397Z,84.73
2023-02-26T10:09:04.103Z,86.89
2023-02-26T10:11:46.420Z,86.33
2023-02-26T10:14:27.304Z,85.91
2023-02-26T10:17:08.306Z,86.80
2023-02-26T10:19:46.926Z,86.42
2023-02-26T10:22:31.244Z,86.31
2023-02-26T10:25:10.889Z,86.27
2023-02-26T10:27:58.699Z,87.89
2023-02-26T10:30:38.802Z,87.71
2023-02-26T10:33:22.068Z,87.37
2023-02-26T10:36:04.657Z,86.90
2023-02-26T10:38:38.054Z,85.56
2023-02-26T10:41:15.916Z,86.06
2023-02-26T10:43:53.622Z,85.95
2023-02-26T10:46:37.821Z,86.81
2023-02-26T10:49:36.861Z,86.51
2023-02-26T10:52:17.952Z,86.12
2023-02-26T10:55:26.192Z,86.68
2023-02-26T10:58:06.947Z,85.78
2023-02-26T11:00:42.038Z,86.65
2023-02-26T11:03:20.247Z,85.60
2023-02-26T11:05:53.321Z,84.50
2023-02-26T11:08:30.722Z,88.59
2023-02-26T11:11:06.327Z,85.46
2023-02-26T11:13:40.686Z,83.11
2023-02-26T11:16:18.524Z,82.45
2023-02-26T11:18:55.653Z,83.54
2023-02-26T11:21:32.493Z,86.59
2023-02-26T11:24:13.299Z,86.62
2023-02-26T11:26:50.156Z,85.87
2023-02-26T11:29:26.646Z,87.35
2023-02-26T11:32:02.532Z,87.93
2023-02-26T11:34:36.555Z,88.16
2023-02-26T11:37:09.597Z,88.09
2023-02-26T11:39:44.242Z,88.63
2023-02-26T11:42:19.067Z,88.04
2023-02-26T11:44:52.913Z,87.25
2023-02-26T11:47:30.996Z,85.15
2023-02-26T11:50:15.128Z,85.17
2023-02-26T11:52:56.529Z,84.18
2023-02-26T11:55:35.711Z,82.21
2023-02-26T11:58:22.947Z,83.63
2023-02-26T12:00:59.836Z,81.93
2023-02-26T12:03:40.081Z,82.48
2023-02-26T12:06:19.616Z,82.94
2023-02-26T12:08:54.066Z,80.50
2023-02-26T12:11:59.897Z,79.69
2023-02-26T12:14:50.189Z,80.60
2023-02-26T12:17:37.938Z,79.53
2023-02-26T12:20:22.727Z,78.65
2023-02-26T12:23:16.317Z,78.97
2023-02-26T12:26:17.128Z,79.66
2023-02-26T12:29:06.173Z,80.33
2023-02-26T12:32:11.530Z,78.91
2023-02-26T12:35:32.228Z,79.47
2023-02-26T12:38:19.686Z,79.83
2023-02-26T12:41:21.398Z,75.96
2023-02-26T12:43:57.913Z,78.55
2023-02-26T12:46:55.118Z,78.74
2023-02-26T12:49:55.226Z,75.91
2023-02-26T12:53:05.201Z,76.23
2023-02-26T12:55:52.705Z,75.64
2023-02-26T12:58:45.372Z,77.28
2023-02-26T13:01:36.567Z,75.86
2023-02-26T13:04:42.390Z,76.05
2023-02-26T13:07:54.500Z,76.13
2023-02-26T13:10:42.228Z,75.66
2023-02-26T13:13:35.164Z,75.54
2023-02-26T13:16:31.266Z,73.26
2023-02-26T13:19:14.999Z,73.99
2023-02-26T13:21:54.042Z,69.19
2023-02-26T13:24:35.902Z,69.88
2023-02-26T13:27:10.975Z,68.81
2023-02-26T13:29:50.729Z,67.73
2023-02-26T13:32:28.114Z,69.75
2023-02-26T13:35:06.671Z,68.57
2023-02-26T13:37:42.658Z,67.98
2023-02-26T13:40:40.691Z,68.72
2023-02-26T13:43:30.876Z,68.26
2023-02-26T13:46:21.206Z,66.81
2023-02-26T13:49:04.640Z,66.72
2023-02-26T13:51:41.604Z,66.22
2023-02-26T13:54:45.795Z,66.46
2023-02-26T13:57:36.856Z,67.39
2023-02-26T14:00:26.750Z,66.58
2023-02-26T14:03:12.038Z,67.99
2023-02-26T14:06:26.532Z,67.25
2023-02-26T14:09:06.318Z,65.66
2023-02-26T14:12:01.217Z,67.57
2023-02-26T14:14:40.915Z,65.89
2023-02-26T14:17:44.024Z,67.49
2023-02-26T14:20:27.281Z,65.96
2023-02-26T14:23:21.304Z,66.07
2023-02-26T14:25:54.998Z,65.37
2023-02-26T14:28:43.855Z,66.14
2023-02-26T14:31:22.300Z,64.68
2023-02-26T14:34:15.617Z,62.22
2023-02-26T14:36:53.188Z,63.75
2023-02-26T14:39:37.816Z,64.95
2023-02-26T14:42:15.886Z,66.60
2023-02-26T14:44:53.478Z,67.36
2023-02-26T14:47:27.871Z,67.96
2023-02-26T14:50:01.081Z,68.65
2023-02-26T14:53:14.322Z,69.69
2023-02-26T14:56:03.550Z,74.84
2023-02-26T14:59:14.938Z,76.68
2023-02-26T15:01:53.053Z,76.45
2023-02-26T15:05:22.514Z,73.98
2023-02-26T15:08:24.419Z,76.82
2023-02-26T15:11:26.081Z,72.60
2023-02-26T15:14:21.503Z,68.13
2023-02-26T15:17:08.357Z,65.33
2023-02-26T15:20:07.900Z,65.46
2023-02-26T15:23:15.983Z,65.01
2023-02-26T15:25:51.660Z,65.66
2023-02-26T15:28:30.347Z,66.62
2023-02-26T15:31:04.909Z,66.59
2023-02-26T15:33:38.115Z,63.29
2023-02-26T15:36:15.841Z,65.62
2023-02-26T15:38:51.427Z,64.92
2023-02-26T15:41:26.586Z,65.19
2023-02-26T15:44:08.636Z,65.24
2023-02-26T15:46:45.199Z,63.71
2023-02-26T15:49:25.735Z,62.93
2023-02-26T15:52:00.972Z,61.81
2023-02-26T15:54:41.626Z,59.64
2023-02-26T15:57:16.206Z,61.30
2023-02-26T15:59:53.368Z,60.18
2023-02-26T16:02:30.688Z,59.79
2023-02-26T16:05:04.643Z,57.94
2023-02-26T16:07:37.764Z,57.64
2023-02-26T16:10:22.633Z,59.04
2023-02-26T16:12:56.725Z,59.09
2023-02-26T16:15:36.600Z,59.09
2023-02-26T16:18:15.778Z,58.23
2023-02-26T16:20:51.507Z,59.05
2023-02-26T16:23:38.713Z,59.80
2023-02-26T16:26:19.722Z,60.26
2023-02-26T16:28:59.778Z,60.72
2023-02-26T16:31:36.975Z,61.02
2023-02-26T16:34:29.267Z,60.59
2023-02-26T16:37:28.530Z,61.15
2023-02-26T16:40:19.977Z,60.62
2023-02-26T16:43:02.314Z,61.73
2023-02-26T16:45:50.810Z,60.73
2023-02-26T16:48:28.218Z,61.06
2023-02-26T16:51:06.609Z,61.37
2023-02-26T16:53:45.229Z,61.22
2023-02-26T16:56:22.062Z,61.71
2023-02-26T16:59:04.629Z,62.08
2023-02-26T17:01:41.507Z,62.46
2023-02-26T17:04:18.605Z,62.64
2023-02-26T17:06:52.756Z,63.21
2023-02-26T17:09:38.405Z,61.85
2023-02-26T17:12:19.630Z,61.98
2023-02-26T17:14:56.880Z,61.89
2023-02-26T17:17:30.146Z,61.91
2023-02-26T17:20:06.166Z,62.18
2023-02-26T17:22:39.996Z,61.93
2023-02-26T17:25:17.179Z,61.51
2023-02-26T17:27:50.827Z,62.25
2023-02-26T17:30:25.666Z,61.27
2023-02-26T17:32:59.076Z,61.06
2023-02-26T17:35:33.432Z,61.33
2023-02-26T17:38:06.442Z,61.17
2023-02-26T17:40:40.814Z,61.18
2023-02-26T17:43:13.827Z,61.29
2023-02-26T17:45:47.286Z,61.57
2023-02-26T17:48:20.626Z,61.29
2023-02-26T17:50:56.496Z,61.67
2023-02-26T17:53:33.289Z,61.25
2023-02-26T17:56:11.236Z,62.60
2023-02-26T17:58:45.519Z,62.60
2023-02-26T18:01:19.640Z,62.91
2023-02-26T18:03:54.521Z,62.90
2023-02-26T18:06:31.068Z,61.85
2023-02-26T18:09:07.934Z,62.66
2023-02-26T18:11:42.985Z,61.53
2023-02-26T18:14:16.025Z,62.72
2023-02-26T18:16:49.069Z,63.16
2023-02-26T18:19:22.060Z,63.33
2023-02-26T18:21:56.443Z,63.45
2023-02-26T18:24:29.626Z,62.97
2023-02-26T18:27:02.559Z,63.85
2023-02-26T18:29:35.530Z,63.25
2023-02-26T18:32:13.097Z,63.51
2023-02-26T18:34:46.210Z,63.30
2023-02-26T18:37:23.726Z,63.66
2023-02-26T18:39:56.863Z,63.90
2023-02-26T18:42:29.866Z,64.29
2023-02-26T18:45:02.859Z,64.60
2023-02-26T18:47:36.303Z,63.92
2023-02-26T18:50:13.974Z,63.42
2023-02-26T18:52:48.338Z,62.96
2023-02-26T18:55:21.379Z,63.91
2023-02-26T18:57:54.509Z,63.42
2023-02-26T19:00:28.584Z,63.42
2023-02-26T19:03:02.037Z,63.36
2023-02-26T19:05:35.084Z,63.64
2023-02-26T19:08:09.742Z,63.47
2023-02-26T19:10:42.751Z,64.10
2023-02-26T19:13:15.707Z,64.57
2023-02-26T19:15:49.632Z,64.61
2023-02-26T19:18:22.620Z,64.75
2023-02-26T19:20:55.664Z,64.51
2023-02-26T19:23:31.023Z,64.82
2023-02-26T19:26:05.293Z,64.80
2023-02-26T19:28:38.686Z,65.46
2023-02-26T19:31:11.721Z,64.80
2023-02-26T19:33:44.705Z,65.00
2023-02-26T19:36:21.783Z,64.57
2023-02-26T19:38:56.098Z,64.51
2023-02-26T19:41:29.233Z,65.55
2023-02-26T19:44:02.606Z,65.81
2023-02-26T19:46:36.003Z,65.71
2023-02-26T19:49:10.021Z,66.34
2023-02-26T19:51:43.202Z,65.97
2023-02-26T19:54:17.796Z,65.64
2023-02-26T19:56:51.043Z,66.51
2023-02-26T19:59:23.997Z,66.29
2023-02-26T20:01:57.181Z,67.51
2023-02-26T20:04:30.167Z,67.83
2023-02-26T20:07:03.162Z,66.08
2023-02-26T20:09:37.777Z,66.05
2023-02-26T20:12:10.900Z,66.84
2023-02-26T20:14:44.615Z,67.51
2023-02-26T20:17:17.579Z,67.12
2023-02-26T20:19:50.604Z,66.64
2023-02-26T20:22:24.568Z,67.95
2023-02-26T20:24:58.965Z,68.01
2023-02-26T20:27:32.229Z,67.16
2023-02-26T20:30:07.721Z,67.02
2023-02-26T20:32:40.988Z,67.55
2023-02-26T20:35:14.477Z,68.62
2023-02-26T20:37:47.487Z,67.36
2023-02-26T20:40:22.009Z,67.94
2023-02-26T20:42:54.996Z,67.77
2023-02-26T20:45:28.664Z,69.44
2023-02-26T20:48:01.784Z,70.08
2023-02-26T20:50:36.183Z,69.65
2023-02-26T20:53:09.826Z,68.47
2023-02-26T20:55:44.158Z,68.60
2023-02-26T20:58:17.566Z,67.95
2023-02-26T21:00:50.533Z,68.01
2023-02-26T21:03:23.740Z,69.82
2023-02-26T21:05:57.618Z,69.12
2023-02-26T21:08:30.860Z,69.14
2023-02-26T21:11:08.445Z,69.34
2023-02-26T21:13:41.414Z,70.40
2023-02-26T21:16:14.551Z,69.31
2023-02-26T21:18:47.696Z,70.11
2023-02-26T21:21:20.737Z,70.29
2023-02-26T21:23:54.136Z,69.85
2023-02-26T21:26:28.456Z,69.81
2023-02-26T21:29:02.702Z,70.56
2023-02-26T21:31:35.898Z,70.02
2023-02-26T21:34:30.243Z,70.47
2023-02-26T21:37:02.062Z,68.79
2023-02-26T21:39:37.999Z,69.72
2023-02-26T21:42:14.416Z,71.48
2023-02-26T21:44:48.628Z,71.72
2023-02-26T21:47:22.567Z,71.40
2023-02-26T21:49:55.551Z,70.49
2023-02-26T21:52:28.993Z,70.81
2023-02-26T21:55:02.010Z,71.09
2023-02-26T21:57:36.336Z,71.33
2023-02-26T22:00:11.767Z,71.54
2023-02-26T22:02:45.299Z,70.77
2023-02-26T22:05:18.393Z,71.83
2023-02-26T22:07:52.205Z,71.41
2023-02-26T22:10:25.241Z,71.58
2023-02-26T22:12:59.581Z,72.11
2023-02-26T22:15:32.652Z,71.27
2023-02-26T22:18:05.913Z,71.98
2023-02-26T22:20:38.931Z,72.37
2023-02-26T22:23:11.920Z,71.38
2023-02-26T22:25:44.944Z,71.95
2023-02-26T22:28:19.244Z,71.64
2023-02-26T22:30:52.520Z,70.79
2023-02-26T22:33:26.291Z,71.63
2023-02-26T22:36:00.277Z,71.80
2023-02-26T22:38:33.282Z,71.51
2023-02-26T22:41:06.977Z,71.97
2023-02-26T22:43:41.417Z,71.07
2023-02-26T22:46:16.732Z,72.50
2023-02-26T22:48:49.747Z,72.01
2023-02-26T22:51:23.358Z,71.94
2023-02-26T22:53:56.879Z,72.26
2023-02-26T22:56:30.181Z,71.79
2023-02-26T22:59:04.570Z,70.37
2023-02-26T23:01:38.019Z,71.58
2023-02-26T23:04:11.551Z,71.50
2023-02-26T23:06:44.512Z,72.23
2023-02-26T23:09:17.556Z,71.55
2023-02-26T23:11:51.779Z,71.66
2023-02-26T23:14:26.141Z,71.88
2023-02-26T23:16:59.240Z,73.44
2023-02-26T23:19:32.260Z,73.00
2023-02-26T23:22:05.324Z,73.90
2023-02-26T23:24:38.355Z,72.76
2023-02-26T23:27:11.693Z,72.99
2023-02-26T23:29:46.580Z,73.37
2023-02-26T23:32:19.674Z,72.84
2023-02-26T23:34:52.691Z,73.16
2023-02-26T23:37:26.262Z,72.78
2023-02-26T23:39:59.488Z,73.52
2023-02-26T23:42:32.538Z,74.91
2023-02-26T23:45:08.686Z,73.78
2023-02-26T23:47:41.939Z,73.41
2023-02-26T23:50:15.051Z,73.06
2023-02-26T23:52:48.206Z,73.26
2023-02-26T23:55:21.498Z,74.47
2023-02-26T23:57:54.538Z,73.68
